sensor_id;sensor_type;location;lat;lon;timestamp;temperature;humidity
22065;DHT22;11197;53.110;8.468;2024-02-14T00:00:12;7.20;99.90
22065;DHT22;11197;53.110;8.468;2024-02-14T00:02:44;7.20;99.90
22065;DHT22;11197;53.110;8.468;2024-02-14T00:05:10;7.20;99.90
22065;DHT22;11197;53.110;8.468;2024-02-14T00:07:39;7.20;99.90
22065;DHT22;11197;53.110;8.468;2024-02-14T00:10:05;7.20;99.90
22065;DHT22;11197;53.110;8.468;2024-02-14T00:12:35;7.20;99.90
22065;DHT22;11197;53.110;8.468;2024-02-14T00:15:06;7.20;99.90
22065;DHT22;11197;53.110;8.468;2024-02-14T00:17:33;7.20;99.90
22065;DHT22;11197;53.110;8.468;2024-02-14T00:20:00;7.20;99.90
22065;DHT22;11197;53.110;8.468;2024-02-14T00:22:26;7.20;99.90
22065;DHT22;11197;53.110;8.468;2024-02-14T00:24:52;7.10;99.90
22065;DHT22;11197;53.110;8.468;2024-02-14T00:27:17;7.10;99.90
22065;DHT22;11197;53.110;8.468;2024-02-14T00:29:43;7.10;99.90
22065;DHT22;11197;53.110;8.468;2024-02-14T00:32:15;7.10;99.90
22065;DHT22;11197;53.110;8.468;2024-02-14T00:34:40;7.10;99.90
22065;DHT22;11197;53.110;8.468;2024-02-14T00:37:06;7.10;99.90
22065;DHT22;11197;53.110;8.468;2024-02-14T00:39:32;7.20;99.90
22065;DHT22;11197;53.110;8.468;2024-02-14T00:41:58;7.10;99.90
22065;DHT22;11197;53.110;8.468;2024-02-14T00:44:24;7.20;99.90
22065;DHT22;11197;53.110;8.468;2024-02-14T00:46:56;7.10;99.90
22065;DHT22;11197;53.110;8.468;2024-02-14T00:49:24;7.10;99.90
22065;DHT22;11197;53.110;8.468;2024-02-14T00:51:50;7.10;99.90
22065;DHT22;11197;53.110;8.468;2024-02-14T00:54:16;7.10;99.90
22065;DHT22;11197;53.110;8.468;2024-02-14T00:56:41;7.10;99.90
22065;DHT22;11197;53.110;8.468;2024-02-14T00:59:07;7.10;99.90
22065;DHT22;11197;53.110;8.468;2024-02-14T01:01:33;7.10;99.90
22065;DHT22;11197;53.110;8.468;2024-02-14T01:03:59;7.10;99.90
22065;DHT22;11197;53.110;8.468;2024-02-14T01:06:25;7.10;99.90
22065;DHT22;11197;53.110;8.468;2024-02-14T01:08:51;7.10;99.90
22065;DHT22;11197;53.110;8.468;2024-02-14T01:11:17;7.10;99.90
22065;DHT22;11197;53.110;8.468;2024-02-14T01:13:43;7.10;99.90
22065;DHT22;11197;53.110;8.468;2024-02-14T01:16:08;7.10;99.90
22065;DHT22;11197;53.110;8.468;2024-02-14T01:18:35;7.10;99.90
22065;DHT22;11197;53.110;8.468;2024-02-14T01:21:01;7.10;99.90
22065;DHT22;11197;53.110;8.468;2024-02-14T01:23:27;7.10;99.90
22065;DHT22;11197;53.110;8.468;2024-02-14T01:25:53;7.10;99.90
22065;DHT22;11197;53.110;8.468;2024-02-14T01:28:20;7.10;99.90
22065;DHT22;11197;53.110;8.468;2024-02-14T01:30:46;7.10;99.90
22065;DHT22;11197;53.110;8.468;2024-02-14T01:33:12;7.10;99.90
22065;DHT22;11197;53.110;8.468;2024-02-14T01:35:37;7.20;99.90
22065;DHT22;11197;53.110;8.468;2024-02-14T01:38:04;7.20;99.90
22065;DHT22;11197;53.110;8.468;2024-02-14T01:40:30;7.20;99.90
22065;DHT22;11197;53.110;8.468;2024-02-14T01:42:55;7.20;99.90
22065;DHT22;11197;53.110;8.468;2024-02-14T01:45:21;7.10;99.90
22065;DHT22;11197;53.110;8.468;2024-02-14T01:47:51;7.10;99.90
22065;DHT22;11197;53.110;8.468;2024-02-14T01:50:17;7.10;99.90
22065;DHT22;11197;53.110;8.468;2024-02-14T01:52:49;7.10;99.90
22065;DHT22;11197;53.110;8.468;2024-02-14T01:55:14;7.10;99.90
22065;DHT22;11197;53.110;8.468;2024-02-14T01:57:41;7.20;99.90
22065;DHT22;11197;53.110;8.468;2024-02-14T02:00:07;7.10;99.90
22065;DHT22;11197;53.110;8.468;2024-02-14T02:02:40;7.10;99.90
22065;DHT22;11197;53.110;8.468;2024-02-14T02:05:12;7.10;99.90
22065;DHT22;11197;53.110;8.468;2024-02-14T02:07:39;7.20;99.90
22065;DHT22;11197;53.110;8.468;2024-02-14T02:10:09;7.20;99.90
22065;DHT22;11197;53.110;8.468;2024-02-14T02:12:36;7.10;99.90
22065;DHT22;11197;53.110;8.468;2024-02-14T02:15:05;7.10;99.90
22065;DHT22;11197;53.110;8.468;2024-02-14T02:17:32;7.10;99.90
22065;DHT22;11197;53.110;8.468;2024-02-14T02:20:00;7.10;99.90
22065;DHT22;11197;53.110;8.468;2024-02-14T02:22:26;7.10;99.90
22065;DHT22;11197;53.110;8.468;2024-02-14T02:24:54;7.10;99.90
22065;DHT22;11197;53.110;8.468;2024-02-14T02:27:19;7.10;99.90
22065;DHT22;11197;53.110;8.468;2024-02-14T02:29:45;7.10;99.90
22065;DHT22;11197;53.110;8.468;2024-02-14T02:32:11;7.10;99.90
22065;DHT22;11197;53.110;8.468;2024-02-14T02:34:37;7.10;99.90
22065;DHT22;11197;53.110;8.468;2024-02-14T02:37:05;7.00;99.90
22065;DHT22;11197;53.110;8.468;2024-02-14T02:39:33;7.00;99.90
22065;DHT22;11197;53.110;8.468;2024-02-14T02:41:59;7.00;99.90
22065;DHT22;11197;53.110;8.468;2024-02-14T02:44:25;7.00;99.90
22065;DHT22;11197;53.110;8.468;2024-02-14T02:46:51;7.00;99.90
22065;DHT22;11197;53.110;8.468;2024-02-14T02:49:17;7.10;99.90
22065;DHT22;11197;53.110;8.468;2024-02-14T02:51:43;7.10;99.90
22065;DHT22;11197;53.110;8.468;2024-02-14T02:54:09;7.00;99.90
22065;DHT22;11197;53.110;8.468;2024-02-14T02:56:37;7.00;99.90
22065;DHT22;11197;53.110;8.468;2024-02-14T02:59:03;7.10;99.90
22065;DHT22;11197;53.110;8.468;2024-02-14T03:01:34;7.10;99.90
22065;DHT22;11197;53.110;8.468;2024-02-14T03:04:00;7.10;99.90
22065;DHT22;11197;53.110;8.468;2024-02-14T03:06:26;7.10;99.90
22065;DHT22;11197;53.110;8.468;2024-02-14T03:08:52;7.10;99.90
22065;DHT22;11197;53.110;8.468;2024-02-14T03:11:19;7.10;99.90
22065;DHT22;11197;53.110;8.468;2024-02-14T03:13:45;7.10;99.90
22065;DHT22;11197;53.110;8.468;2024-02-14T03:16:14;7.10;99.90
22065;DHT22;11197;53.110;8.468;2024-02-14T03:18:40;7.10;99.90
22065;DHT22;11197;53.110;8.468;2024-02-14T03:21:06;7.10;99.90
22065;DHT22;11197;53.110;8.468;2024-02-14T03:23:32;7.10;99.90
22065;DHT22;11197;53.110;8.468;2024-02-14T03:25:58;7.10;99.90
22065;DHT22;11197;53.110;8.468;2024-02-14T03:28:23;7.10;99.90
22065;DHT22;11197;53.110;8.468;2024-02-14T03:30:50;7.10;99.90
22065;DHT22;11197;53.110;8.468;2024-02-14T03:33:16;7.10;99.90
22065;DHT22;11197;53.110;8.468;2024-02-14T03:35:42;7.10;99.90
22065;DHT22;11197;53.110;8.468;2024-02-14T03:38:07;7.10;99.90
22065;DHT22;11197;53.110;8.468;2024-02-14T03:40:36;7.20;99.90
22065;DHT22;11197;53.110;8.468;2024-02-14T03:43:04;7.20;99.90
22065;DHT22;11197;53.110;8.468;2024-02-14T03:45:30;7.20;99.90
22065;DHT22;11197;53.110;8.468;2024-02-14T03:47:56;7.10;99.90
22065;DHT22;11197;53.110;8.468;2024-02-14T03:50:22;7.10;99.90
22065;DHT22;11197;53.110;8.468;2024-02-14T03:52:48;7.10;99.90
22065;DHT22;11197;53.110;8.468;2024-02-14T03:55:14;7.10;99.90
22065;DHT22;11197;53.110;8.468;2024-02-14T03:57:42;7.20;99.90
22065;DHT22;11197;53.110;8.468;2024-02-14T04:00:11;7.20;99.90
22065;DHT22;11197;53.110;8.468;2024-02-14T04:02:37;7.20;99.90
22065;DHT22;11197;53.110;8.468;2024-02-14T04:05:03;7.20;99.90
22065;DHT22;11197;53.110;8.468;2024-02-14T04:07:29;7.20;99.90
22065;DHT22;11197;53.110;8.468;2024-02-14T04:09:55;7.20;99.90
22065;DHT22;11197;53.110;8.468;2024-02-14T04:12:21;7.10;99.90
22065;DHT22;11197;53.110;8.468;2024-02-14T04:14:47;7.20;99.90
22065;DHT22;11197;53.110;8.468;2024-02-14T04:17:13;7.20;99.90
22065;DHT22;11197;53.110;8.468;2024-02-14T04:19:40;7.20;99.90
22065;DHT22;11197;53.110;8.468;2024-02-14T04:22:06;7.20;99.90
22065;DHT22;11197;53.110;8.468;2024-02-14T04:24:35;7.20;99.90
22065;DHT22;11197;53.110;8.468;2024-02-14T04:27:01;7.20;99.90
22065;DHT22;11197;53.110;8.468;2024-02-14T04:29:29;7.30;99.90
22065;DHT22;11197;53.110;8.468;2024-02-14T04:31:56;7.30;99.90
22065;DHT22;11197;53.110;8.468;2024-02-14T04:34:22;7.30;99.90
22065;DHT22;11197;53.110;8.468;2024-02-14T04:36:48;7.30;99.90
22065;DHT22;11197;53.110;8.468;2024-02-14T04:39:14;7.30;99.90
22065;DHT22;11197;53.110;8.468;2024-02-14T04:41:39;7.30;99.90
22065;DHT22;11197;53.110;8.468;2024-02-14T04:44:05;7.40;99.90
22065;DHT22;11197;53.110;8.468;2024-02-14T04:46:34;7.30;99.90
22065;DHT22;11197;53.110;8.468;2024-02-14T04:49:01;7.30;99.90
22065;DHT22;11197;53.110;8.468;2024-02-14T04:51:29;7.40;99.90
22065;DHT22;11197;53.110;8.468;2024-02-14T04:53:55;7.40;99.90
22065;DHT22;11197;53.110;8.468;2024-02-14T04:56:25;7.40;99.90
22065;DHT22;11197;53.110;8.468;2024-02-14T04:58:53;7.40;99.90
22065;DHT22;11197;53.110;8.468;2024-02-14T05:01:18;7.40;99.90
22065;DHT22;11197;53.110;8.468;2024-02-14T05:03:44;7.40;99.90
22065;DHT22;11197;53.110;8.468;2024-02-14T05:06:10;7.40;99.90
22065;DHT22;11197;53.110;8.468;2024-02-14T05:08:35;7.40;99.90
22065;DHT22;11197;53.110;8.468;2024-02-14T05:11:01;7.50;99.90
22065;DHT22;11197;53.110;8.468;2024-02-14T05:13:27;7.50;99.90
22065;DHT22;11197;53.110;8.468;2024-02-14T05:15:53;7.50;99.90
22065;DHT22;11197;53.110;8.468;2024-02-14T05:18:18;7.50;99.90
22065;DHT22;11197;53.110;8.468;2024-02-14T05:20:44;7.50;99.90
22065;DHT22;11197;53.110;8.468;2024-02-14T05:23:10;7.50;99.90
22065;DHT22;11197;53.110;8.468;2024-02-14T05:25:36;7.60;99.90
22065;DHT22;11197;53.110;8.468;2024-02-14T05:28:02;7.60;99.90
22065;DHT22;11197;53.110;8.468;2024-02-14T05:30:28;7.60;99.90
22065;DHT22;11197;53.110;8.468;2024-02-14T05:32:54;7.60;99.90
22065;DHT22;11197;53.110;8.468;2024-02-14T05:35:21;7.60;99.90
22065;DHT22;11197;53.110;8.468;2024-02-14T05:37:47;7.70;99.90
22065;DHT22;11197;53.110;8.468;2024-02-14T05:40:15;7.70;99.90
22065;DHT22;11197;53.110;8.468;2024-02-14T05:42:41;7.70;99.90
22065;DHT22;11197;53.110;8.468;2024-02-14T05:45:07;7.70;99.90
22065;DHT22;11197;53.110;8.468;2024-02-14T05:47:35;7.70;99.90
22065;DHT22;11197;53.110;8.468;2024-02-14T05:50:01;7.80;99.90
22065;DHT22;11197;53.110;8.468;2024-02-14T05:52:27;7.80;99.90
22065;DHT22;11197;53.110;8.468;2024-02-14T05:54:53;7.80;99.90
22065;DHT22;11197;53.110;8.468;2024-02-14T05:57:19;7.80;99.90
22065;DHT22;11197;53.110;8.468;2024-02-14T05:59:45;7.80;99.90
22065;DHT22;11197;53.110;8.468;2024-02-14T06:02:11;7.90;99.90
22065;DHT22;11197;53.110;8.468;2024-02-14T06:04:37;7.90;99.90
22065;DHT22;11197;53.110;8.468;2024-02-14T06:07:03;7.90;99.90
22065;DHT22;11197;53.110;8.468;2024-02-14T06:09:31;7.90;99.90
22065;DHT22;11197;53.110;8.468;2024-02-14T06:11:56;8.00;99.90
22065;DHT22;11197;53.110;8.468;2024-02-14T06:14:23;8.00;99.90
22065;DHT22;11197;53.110;8.468;2024-02-14T06:16:49;8.00;99.90
22065;DHT22;11197;53.110;8.468;2024-02-14T06:19:14;8.00;99.90
22065;DHT22;11197;53.110;8.468;2024-02-14T06:21:40;8.00;99.90
22065;DHT22;11197;53.110;8.468;2024-02-14T06:24:06;8.10;99.90
22065;DHT22;11197;53.110;8.468;2024-02-14T06:26:32;8.10;99.90
22065;DHT22;11197;53.110;8.468;2024-02-14T06:28:58;8.10;99.90
22065;DHT22;11197;53.110;8.468;2024-02-14T06:31:24;8.10;99.90
22065;DHT22;11197;53.110;8.468;2024-02-14T06:33:50;8.10;99.90
22065;DHT22;11197;53.110;8.468;2024-02-14T06:36:16;8.10;99.90
22065;DHT22;11197;53.110;8.468;2024-02-14T06:38:41;8.20;99.90
22065;DHT22;11197;53.110;8.468;2024-02-14T06:41:07;8.20;99.90
22065;DHT22;11197;53.110;8.468;2024-02-14T06:43:33;8.20;99.90
22065;DHT22;11197;53.110;8.468;2024-02-14T06:45:59;8.20;99.90
22065;DHT22;11197;53.110;8.468;2024-02-14T06:48:24;8.20;99.90
22065;DHT22;11197;53.110;8.468;2024-02-14T06:50:50;8.30;99.90
22065;DHT22;11197;53.110;8.468;2024-02-14T06:53:17;8.30;99.90
22065;DHT22;11197;53.110;8.468;2024-02-14T06:55:43;8.30;99.90
22065;DHT22;11197;53.110;8.468;2024-02-14T06:58:08;8.30;99.90
22065;DHT22;11197;53.110;8.468;2024-02-14T07:00:34;8.40;99.90
22065;DHT22;11197;53.110;8.468;2024-02-14T07:03:00;8.40;99.90
22065;DHT22;11197;53.110;8.468;2024-02-14T07:05:26;8.40;99.90
22065;DHT22;11197;53.110;8.468;2024-02-14T07:07:53;8.50;99.90
22065;DHT22;11197;53.110;8.468;2024-02-14T07:10:19;8.50;99.90
22065;DHT22;11197;53.110;8.468;2024-02-14T07:12:44;8.50;99.90
22065;DHT22;11197;53.110;8.468;2024-02-14T07:15:10;8.50;99.90
22065;DHT22;11197;53.110;8.468;2024-02-14T07:17:36;8.50;99.90
22065;DHT22;11197;53.110;8.468;2024-02-14T07:20:04;8.50;99.90
22065;DHT22;11197;53.110;8.468;2024-02-14T07:22:30;8.60;99.90
22065;DHT22;11197;53.110;8.468;2024-02-14T07:24:56;8.60;99.90
22065;DHT22;11197;53.110;8.468;2024-02-14T07:27:22;8.70;99.90
22065;DHT22;11197;53.110;8.468;2024-02-14T07:29:49;8.70;99.90
22065;DHT22;11197;53.110;8.468;2024-02-14T07:32:15;8.70;99.90
22065;DHT22;11197;53.110;8.468;2024-02-14T07:34:42;8.80;99.90
22065;DHT22;11197;53.110;8.468;2024-02-14T07:37:09;8.80;99.90
22065;DHT22;11197;53.110;8.468;2024-02-14T07:39:34;8.80;99.90
22065;DHT22;11197;53.110;8.468;2024-02-14T07:42:03;8.80;99.90
22065;DHT22;11197;53.110;8.468;2024-02-14T07:44:29;8.80;99.90
22065;DHT22;11197;53.110;8.468;2024-02-14T07:46:55;8.90;99.90
22065;DHT22;11197;53.110;8.468;2024-02-14T07:49:21;8.90;99.90
22065;DHT22;11197;53.110;8.468;2024-02-14T07:51:46;8.90;99.90
22065;DHT22;11197;53.110;8.468;2024-02-14T07:54:13;8.90;99.90
22065;DHT22;11197;53.110;8.468;2024-02-14T07:56:39;8.90;99.90
22065;DHT22;11197;53.110;8.468;2024-02-14T07:59:04;9.00;99.90
22065;DHT22;11197;53.110;8.468;2024-02-14T08:01:31;9.00;99.90
22065;DHT22;11197;53.110;8.468;2024-02-14T08:03:58;9.10;99.90
22065;DHT22;11197;53.110;8.468;2024-02-14T08:06:24;9.10;99.90
22065;DHT22;11197;53.110;8.468;2024-02-14T08:08:50;9.10;99.90
22065;DHT22;11197;53.110;8.468;2024-02-14T08:11:19;9.10;99.90
22065;DHT22;11197;53.110;8.468;2024-02-14T08:13:45;9.10;99.90
22065;DHT22;11197;53.110;8.468;2024-02-14T08:16:11;9.20;99.90
22065;DHT22;11197;53.110;8.468;2024-02-14T08:18:37;9.20;99.90
22065;DHT22;11197;53.110;8.468;2024-02-14T08:21:06;9.20;99.90
22065;DHT22;11197;53.110;8.468;2024-02-14T08:23:32;9.20;99.90
22065;DHT22;11197;53.110;8.468;2024-02-14T08:25:58;9.20;99.90
22065;DHT22;11197;53.110;8.468;2024-02-14T08:28:24;9.30;99.90
22065;DHT22;11197;53.110;8.468;2024-02-14T08:30:49;9.30;99.90
22065;DHT22;11197;53.110;8.468;2024-02-14T08:33:15;9.30;99.90
22065;DHT22;11197;53.110;8.468;2024-02-14T08:35:41;9.40;99.90
22065;DHT22;11197;53.110;8.468;2024-02-14T08:38:07;9.40;99.90
22065;DHT22;11197;53.110;8.468;2024-02-14T08:40:34;9.40;99.90
22065;DHT22;11197;53.110;8.468;2024-02-14T08:42:59;9.40;99.90
22065;DHT22;11197;53.110;8.468;2024-02-14T08:45:26;9.40;99.90
22065;DHT22;11197;53.110;8.468;2024-02-14T08:47:55;9.50;99.90
22065;DHT22;11197;53.110;8.468;2024-02-14T08:50:21;9.50;99.90
22065;DHT22;11197;53.110;8.468;2024-02-14T08:52:46;9.50;99.90
22065;DHT22;11197;53.110;8.468;2024-02-14T08:55:12;9.50;99.90
22065;DHT22;11197;53.110;8.468;2024-02-14T08:57:42;9.50;99.90
22065;DHT22;11197;53.110;8.468;2024-02-14T09:00:08;9.50;99.90
22065;DHT22;11197;53.110;8.468;2024-02-14T09:10:11;9.70;99.90
22065;DHT22;11197;53.110;8.468;2024-02-14T09:12:38;9.70;99.90
22065;DHT22;11197;53.110;8.468;2024-02-14T09:15:07;9.70;99.90
22065;DHT22;11197;53.110;8.468;2024-02-14T09:17:34;9.80;99.90
22065;DHT22;11197;53.110;8.468;2024-02-14T09:20:01;9.80;99.90
22065;DHT22;11197;53.110;8.468;2024-02-14T09:22:27;9.80;99.90
22065;DHT22;11197;53.110;8.468;2024-02-14T09:24:54;9.90;99.90
22065;DHT22;11197;53.110;8.468;2024-02-14T09:27:19;9.80;99.90
22065;DHT22;11197;53.110;8.468;2024-02-14T09:29:45;9.90;99.90
22065;DHT22;11197;53.110;8.468;2024-02-14T09:32:11;9.90;99.90
22065;DHT22;11197;53.110;8.468;2024-02-14T09:34:37;9.90;99.90
22065;DHT22;11197;53.110;8.468;2024-02-14T09:37:03;10.00;99.90
22065;DHT22;11197;53.110;8.468;2024-02-14T09:39:30;10.00;99.90
22065;DHT22;11197;53.110;8.468;2024-02-14T09:41:58;10.00;99.90
22065;DHT22;11197;53.110;8.468;2024-02-14T09:44:27;10.10;99.90
22065;DHT22;11197;53.110;8.468;2024-02-14T09:46:55;10.00;99.90
22065;DHT22;11197;53.110;8.468;2024-02-14T09:49:22;10.10;99.90
22065;DHT22;11197;53.110;8.468;2024-02-14T09:51:49;10.10;99.90
22065;DHT22;11197;53.110;8.468;2024-02-14T09:54:17;10.10;99.90
22065;DHT22;11197;53.110;8.468;2024-02-14T09:56:50;10.30;99.90
22065;DHT22;11197;53.110;8.468;2024-02-14T09:59:19;10.30;99.90
22065;DHT22;11197;53.110;8.468;2024-02-14T10:01:46;10.30;99.90
22065;DHT22;11197;53.110;8.468;2024-02-14T10:04:13;10.30;99.90
22065;DHT22;11197;53.110;8.468;2024-02-14T10:06:39;10.30;99.90
22065;DHT22;11197;53.110;8.468;2024-02-14T10:09:04;10.30;99.90
22065;DHT22;11197;53.110;8.468;2024-02-14T10:11:35;10.30;99.90
22065;DHT22;11197;53.110;8.468;2024-02-14T10:14:01;10.40;99.90
22065;DHT22;11197;53.110;8.468;2024-02-14T10:16:28;10.40;99.90
22065;DHT22;11197;53.110;8.468;2024-02-14T10:18:54;10.40;99.90
22065;DHT22;11197;53.110;8.468;2024-02-14T10:21:21;10.40;99.90
22065;DHT22;11197;53.110;8.468;2024-02-14T10:23:47;10.50;99.90
22065;DHT22;11197;53.110;8.468;2024-02-14T10:26:18;10.40;99.90
22065;DHT22;11197;53.110;8.468;2024-02-14T10:28:44;10.50;99.90
22065;DHT22;11197;53.110;8.468;2024-02-14T10:31:10;10.50;99.90
22065;DHT22;11197;53.110;8.468;2024-02-14T10:33:36;10.50;99.90
22065;DHT22;11197;53.110;8.468;2024-02-14T10:36:02;10.50;99.90
22065;DHT22;11197;53.110;8.468;2024-02-14T10:38:32;10.60;99.90
22065;DHT22;11197;53.110;8.468;2024-02-14T10:40:59;10.60;99.90
22065;DHT22;11197;53.110;8.468;2024-02-14T10:43:26;10.70;99.90
22065;DHT22;11197;53.110;8.468;2024-02-14T10:45:53;10.70;99.90
22065;DHT22;11197;53.110;8.468;2024-02-14T10:48:22;10.70;99.90
22065;DHT22;11197;53.110;8.468;2024-02-14T10:50:53;10.70;99.90
22065;DHT22;11197;53.110;8.468;2024-02-14T10:53:19;10.70;99.90
22065;DHT22;11197;53.110;8.468;2024-02-14T10:55:48;10.70;99.90
22065;DHT22;11197;53.110;8.468;2024-02-14T10:58:16;10.60;99.90
22065;DHT22;11197;53.110;8.468;2024-02-14T11:00:42;10.70;99.90
22065;DHT22;11197;53.110;8.468;2024-02-14T11:03:09;10.70;99.90
22065;DHT22;11197;53.110;8.468;2024-02-14T11:05:46;10.70;99.90
22065;DHT22;11197;53.110;8.468;2024-02-14T11:08:18;10.70;99.90
22065;DHT22;11197;53.110;8.468;2024-02-14T11:10:53;10.70;99.90
22065;DHT22;11197;53.110;8.468;2024-02-14T11:13:20;10.70;99.90
22065;DHT22;11197;53.110;8.468;2024-02-14T11:15:47;10.70;99.90
22065;DHT22;11197;53.110;8.468;2024-02-14T11:18:28;10.70;99.90
22065;DHT22;11197;53.110;8.468;2024-02-14T11:20:58;10.70;99.90
22065;DHT22;11197;53.110;8.468;2024-02-14T11:23:24;10.70;99.90
22065;DHT22;11197;53.110;8.468;2024-02-14T11:25:59;10.70;99.90
22065;DHT22;11197;53.110;8.468;2024-02-14T11:28:25;10.70;99.90
22065;DHT22;11197;53.110;8.468;2024-02-14T11:30:51;10.80;99.90
22065;DHT22;11197;53.110;8.468;2024-02-14T11:33:19;10.80;99.90
22065;DHT22;11197;53.110;8.468;2024-02-14T11:35:49;10.80;99.90
22065;DHT22;11197;53.110;8.468;2024-02-14T11:38:17;10.80;99.90
22065;DHT22;11197;53.110;8.468;2024-02-14T11:40:43;10.80;99.90
22065;DHT22;11197;53.110;8.468;2024-02-14T11:43:17;10.80;99.90
22065;DHT22;11197;53.110;8.468;2024-02-14T11:45:44;10.80;99.90
22065;DHT22;11197;53.110;8.468;2024-02-14T11:48:12;10.90;99.90
22065;DHT22;11197;53.110;8.468;2024-02-14T11:50:40;10.90;99.90
22065;DHT22;11197;53.110;8.468;2024-02-14T11:53:07;10.90;99.90
22065;DHT22;11197;53.110;8.468;2024-02-14T11:55:39;10.80;99.90
22065;DHT22;11197;53.110;8.468;2024-02-14T11:58:12;10.90;99.90
22065;DHT22;11197;53.110;8.468;2024-02-14T12:00:45;10.90;99.90
22065;DHT22;11197;53.110;8.468;2024-02-14T12:03:18;10.90;99.90
22065;DHT22;11197;53.110;8.468;2024-02-14T12:05:46;10.90;99.90
22065;DHT22;11197;53.110;8.468;2024-02-14T12:08:13;10.90;99.90
22065;DHT22;11197;53.110;8.468;2024-02-14T12:10:41;10.90;99.90
22065;DHT22;11197;53.110;8.468;2024-02-14T12:13:11;11.00;99.90
22065;DHT22;11197;53.110;8.468;2024-02-14T12:15:41;10.90;99.90
22065;DHT22;11197;53.110;8.468;2024-02-14T12:18:10;10.90;99.90
22065;DHT22;11197;53.110;8.468;2024-02-14T12:20:39;11.00;99.90
22065;DHT22;11197;53.110;8.468;2024-02-14T12:23:05;11.00;99.90
22065;DHT22;11197;53.110;8.468;2024-02-14T12:25:31;11.00;99.90
22065;DHT22;11197;53.110;8.468;2024-02-14T12:27:58;11.00;99.90
22065;DHT22;11197;53.110;8.468;2024-02-14T12:30:42;11.00;99.90
22065;DHT22;11197;53.110;8.468;2024-02-14T12:33:11;11.00;99.90
22065;DHT22;11197;53.110;8.468;2024-02-14T12:35:37;11.10;99.90
22065;DHT22;11197;53.110;8.468;2024-02-14T12:38:08;11.10;99.90
22065;DHT22;11197;53.110;8.468;2024-02-14T12:40:38;11.10;99.90
22065;DHT22;11197;53.110;8.468;2024-02-14T12:43:04;11.10;99.90
22065;DHT22;11197;53.110;8.468;2024-02-14T12:45:31;11.10;99.90
22065;DHT22;11197;53.110;8.468;2024-02-14T12:47:57;11.10;99.90
22065;DHT22;11197;53.110;8.468;2024-02-14T12:50:23;11.20;99.90
22065;DHT22;11197;53.110;8.468;2024-02-14T12:52:48;11.20;99.90
22065;DHT22;11197;53.110;8.468;2024-02-14T12:55:14;11.20;99.90
22065;DHT22;11197;53.110;8.468;2024-02-14T12:57:40;11.20;99.90
22065;DHT22;11197;53.110;8.468;2024-02-14T13:00:07;11.20;99.90
22065;DHT22;11197;53.110;8.468;2024-02-14T13:02:35;11.20;99.90
22065;DHT22;11197;53.110;8.468;2024-02-14T13:05:01;11.20;99.90
22065;DHT22;11197;53.110;8.468;2024-02-14T13:07:28;11.20;99.90
22065;DHT22;11197;53.110;8.468;2024-02-14T13:09:54;11.20;99.90
22065;DHT22;11197;53.110;8.468;2024-02-14T13:12:20;11.20;99.90
22065;DHT22;11197;53.110;8.468;2024-02-14T13:14:46;11.20;99.90
22065;DHT22;11197;53.110;8.468;2024-02-14T13:17:12;11.30;99.90
22065;DHT22;11197;53.110;8.468;2024-02-14T13:19:39;11.20;99.90
22065;DHT22;11197;53.110;8.468;2024-02-14T13:22:05;11.20;99.90
22065;DHT22;11197;53.110;8.468;2024-02-14T13:24:31;11.20;99.90
22065;DHT22;11197;53.110;8.468;2024-02-14T13:26:57;11.20;99.90
22065;DHT22;11197;53.110;8.468;2024-02-14T13:29:26;11.20;99.90
22065;DHT22;11197;53.110;8.468;2024-02-14T13:31:51;11.20;99.90
22065;DHT22;11197;53.110;8.468;2024-02-14T13:34:18;11.30;99.90
22065;DHT22;11197;53.110;8.468;2024-02-14T13:36:47;11.20;99.90
22065;DHT22;11197;53.110;8.468;2024-02-14T13:39:13;11.20;99.90
22065;DHT22;11197;53.110;8.468;2024-02-14T13:41:40;11.30;99.90
22065;DHT22;11197;53.110;8.468;2024-02-14T13:44:07;11.30;99.90
22065;DHT22;11197;53.110;8.468;2024-02-14T13:46:34;11.20;99.90
22065;DHT22;11197;53.110;8.468;2024-02-14T13:49:00;11.20;99.90
22065;DHT22;11197;53.110;8.468;2024-02-14T13:51:26;11.20;99.90
22065;DHT22;11197;53.110;8.468;2024-02-14T13:53:53;11.30;99.90
22065;DHT22;11197;53.110;8.468;2024-02-14T13:56:19;11.30;99.90
22065;DHT22;11197;53.110;8.468;2024-02-14T13:58:48;11.30;99.90
22065;DHT22;11197;53.110;8.468;2024-02-14T14:01:17;11.30;99.90
22065;DHT22;11197;53.110;8.468;2024-02-14T14:03:43;11.30;99.90
22065;DHT22;11197;53.110;8.468;2024-02-14T14:06:09;11.30;99.90
22065;DHT22;11197;53.110;8.468;2024-02-14T14:08:35;11.30;99.90
22065;DHT22;11197;53.110;8.468;2024-02-14T14:11:04;11.40;99.90
22065;DHT22;11197;53.110;8.468;2024-02-14T14:13:30;11.40;99.90
22065;DHT22;11197;53.110;8.468;2024-02-14T14:15:59;11.40;99.90
22065;DHT22;11197;53.110;8.468;2024-02-14T14:18:25;11.40;99.90
22065;DHT22;11197;53.110;8.468;2024-02-14T14:20:51;11.40;99.90
22065;DHT22;11197;53.110;8.468;2024-02-14T14:23:17;11.40;99.90
22065;DHT22;11197;53.110;8.468;2024-02-14T14:25:42;11.40;99.90
22065;DHT22;11197;53.110;8.468;2024-02-14T14:28:08;11.40;99.90
22065;DHT22;11197;53.110;8.468;2024-02-14T14:30:35;11.40;99.90
22065;DHT22;11197;53.110;8.468;2024-02-14T14:33:02;11.50;99.90
22065;DHT22;11197;53.110;8.468;2024-02-14T14:35:29;11.50;99.90
22065;DHT22;11197;53.110;8.468;2024-02-14T14:38:02;11.50;99.90
22065;DHT22;11197;53.110;8.468;2024-02-14T14:40:29;11.50;99.90
22065;DHT22;11197;53.110;8.468;2024-02-14T14:42:54;11.50;99.90
22065;DHT22;11197;53.110;8.468;2024-02-14T14:45:20;11.50;99.90
22065;DHT22;11197;53.110;8.468;2024-02-14T14:47:46;11.60;99.90
22065;DHT22;11197;53.110;8.468;2024-02-14T14:50:12;11.50;99.90
22065;DHT22;11197;53.110;8.468;2024-02-14T14:52:38;11.60;99.90
22065;DHT22;11197;53.110;8.468;2024-02-14T14:55:05;11.50;99.90
22065;DHT22;11197;53.110;8.468;2024-02-14T14:57:31;11.50;99.90
22065;DHT22;11197;53.110;8.468;2024-02-14T14:59:56;11.50;99.90
22065;DHT22;11197;53.110;8.468;2024-02-14T15:02:22;11.50;99.90
22065;DHT22;11197;53.110;8.468;2024-02-14T15:04:48;11.50;99.90
22065;DHT22;11197;53.110;8.468;2024-02-14T15:07:14;11.50;99.90
22065;DHT22;11197;53.110;8.468;2024-02-14T15:09:42;11.50;99.90
22065;DHT22;11197;53.110;8.468;2024-02-14T15:12:08;11.50;99.90
22065;DHT22;11197;53.110;8.468;2024-02-14T15:14:34;11.50;99.90
22065;DHT22;11197;53.110;8.468;2024-02-14T15:17:00;11.50;99.90
22065;DHT22;11197;53.110;8.468;2024-02-14T15:19:25;11.50;99.90
22065;DHT22;11197;53.110;8.468;2024-02-14T15:21:51;11.50;99.90
22065;DHT22;11197;53.110;8.468;2024-02-14T15:24:17;11.50;99.90
22065;DHT22;11197;53.110;8.468;2024-02-14T15:26:43;11.50;99.90
22065;DHT22;11197;53.110;8.468;2024-02-14T15:29:25;11.50;99.90
22065;DHT22;11197;53.110;8.468;2024-02-14T15:32:09;11.50;99.90
22065;DHT22;11197;53.110;8.468;2024-02-14T15:34:54;11.50;99.90
22065;DHT22;11197;53.110;8.468;2024-02-14T15:37:22;11.50;99.90
22065;DHT22;11197;53.110;8.468;2024-02-14T15:39:47;11.50;99.90
22065;DHT22;11197;53.110;8.468;2024-02-14T15:42:13;11.50;99.90
22065;DHT22;11197;53.110;8.468;2024-02-14T15:44:39;11.50;99.90